ADDS METAR Data INFO
IDs: Format: Raw Decoded Include TAF

Data at: 1151 UTC 23 Jun 2018

KMQJ 231136Z AUTO 27007KT 5SM BKN009 BKN013 OVC024 19/19 A2976 RMK AO1
KMQJ 231117Z AUTO 26008KT 7SM OVC007 18/18 A2976 RMK AO1
KMQJ 231057Z AUTO 28007KT 7SM BKN009 BKN014 OVC019 18/18 A2976 RMK AO1
KMQJ 231036Z AUTO 27005KT 7SM SCT009 BKN019 OVC025 18/18 A2975 RMK AO1
KMQJ 231017Z AUTO 26007KT 10SM SCT009 SCT016 OVC025 18/18 A2974 RMK AO1
KMQJ 230956Z AUTO 26006KT 10SM OVC025 18/18 A2974 RMK AO1
KMQJ 230936Z AUTO 25006KT 10SM OVC025 18/18 A2973 RMK AO1
KMQJ 230917Z AUTO 24007KT 10SM SCT008 BKN014 OVC023 18/18 A2973 RMK AO1
KMQJ 230856Z AUTO 24005KT 10SM SCT008 OVC014 18/18 A2972 RMK AO1
KMQJ 230836Z AUTO 26006KT 10SM BKN010 OVC016 18/18 A2972 RMK AO1
KMQJ 230817Z AUTO 25004KT 5SM BKN008 OVC012 18/18 A2971 RMK AO1
KMQJ 230756Z AUTO 23004KT 4SM BKN006 BKN021 BKN031 18/18 A2971 RMK AO1
KMQJ 230736Z AUTO 23004KT 5SM SCT006 SCT011 SCT019 18/18 A2970 RMK AO1
KMQJ 230717Z AUTO 24004KT 5SM SCT006 BKN011 BKN018 18/18 A2970 RMK AO1
KMQJ 230656Z AUTO 26003KT 5SM SCT006 SCT011 17/17 A2971 RMK AO1
KMQJ 230636Z AUTO 00000KT 7SM CLR 17/17 A2970 RMK AO1
KMQJ 230617Z AUTO 00000KT 7SM CLR 17/17 A2970 RMK AO1
KMQJ 230556Z AUTO 28004KT 7SM CLR 17/17 A2970 RMK AO1
KMQJ 230537Z AUTO 27003KT 7SM CLR 17/17 A2970 RMK AO1
KMQJ 230517Z AUTO 28003KT 7SM CLR 18/18 A2970 RMK AO1
KMQJ 230456Z AUTO 24003KT 7SM CLR 18/18 A2971 RMK AO1
KMQJ 230437Z AUTO 25004KT 10SM CLR 18/18 A2969 RMK AO1
KMQJ 230416Z AUTO 00000KT 10SM CLR 18/18 A2969 RMK AO1
KMQJ 230357Z AUTO 26003KT 10SM SCT048 18/18 A2969 RMK AO1
KMQJ 230336Z AUTO 27005KT 10SM BKN048 18/18 A2970 RMK AO1
KMQJ 230316Z AUTO 28006KT 10SM CLR 18/18 A2970 RMK AO1
KMQJ 230257Z AUTO 00000KT 10SM CLR 18/18 A2969 RMK AO1
KMQJ 230236Z AUTO 01003KT 10SM SCT037 SCT043 SCT050 19/19 A2969 RMK AO1
KMQJ 230216Z AUTO 00000KT 10SM SCT036 BKN060 OVC090 19/19 A2969 RMK AO1
KMQJ 230157Z AUTO 34004KT 10SM BKN025 BKN050 OVC090 19/19 A2968 RMK AO1
KMQJ 230136Z AUTO 35005KT 10SM BKN025 BKN048 BKN065 19/19 A2968 RMK AO1
KMQJ 230116Z AUTO 32006KT 10SM SCT016 BKN022 BKN030 20/20 A2968 RMK AO1
KMQJ 230057Z AUTO 24003G8KT 7SM SCT005 SCT010 OVC020 20/20 A2967 RMK AO1
KMQJ 230036Z AUTO 27013KT 7SM SCT015 BKN026 OVC050 21/21 A2967 RMK AO1
KMQJ 230017Z AUTO 00000KT 10SM SCT026 BKN037 OVC060 22/22 A2966 RMK AO1
KMQJ 222357Z AUTO 00000KT 10SM BKN049 22/21 A2966 RMK AO1
KMQJ 222336Z AUTO 00000KT 10SM SCT029 SCT038 SCT046 22/21 A2965 RMK AO1
KMQJ 222317Z AUTO 00000KT 10SM SCT018 SCT024 BKN038 23/21 A2965 RMK AO1
KMQJ 222257Z AUTO 21003KT 10SM SCT020 SCT030 BKN080 24/21 A2965 RMK AO1
KMQJ 222236Z AUTO 20003KT 10SM SCT070 BKN080 24/21 A2966 RMK AO1
KMQJ 222217Z AUTO 00000KT 10SM SCT070 23/21 A2966 RMK AO1
KMQJ 222157Z AUTO 25003KT 10SM SCT110 23/21 A2966 RMK AO1
KMQJ 222136Z AUTO 00000KT 10SM SCT035 22/21 A2967 RMK AO1
KMQJ 222117Z AUTO 00000KT 10SM BKN037 BKN044 BKN050 21/21 A2967 RMK AO1
KMQJ 222057Z AUTO 00000KT 7SM SCT017 BKN035 OVC070 20/20 A2968 RMK AO1
KMQJ 222036Z AUTO 20005KT 3SM SCT019 BKN050 OVC060 21/21 A2968 RMK AO1
KMQJ 222017Z AUTO 00000KT 10SM SCT044 BKN055 OVC080 23/21 A2968 RMK AO1
KMQJ 221956Z AUTO 19003KT 10SM SCT028 BKN070 OVC080 24/20 A2968 RMK AO1
KMQJ 221936Z AUTO 25004KT 10SM SCT026 SCT036 SCT075 24/20 A2969 RMK AO1
KMQJ 221917Z AUTO 21005KT 10SM CLR 24/21 A2969 RMK AO1
KMQJ 221856Z AUTO 21005KT 10SM SCT035 SCT048 SCT110 23/22 A2969 RMK AO1
KMQJ 221836Z AUTO 19006KT 10SM SCT035 BKN044 BKN050 22/21 A2970 RMK AO1
KMQJ 221817Z AUTO 20006KT 5SM SCT027 BKN041 OVC048 21/21 A2970 RMK AO1
KMQJ 221756Z AUTO 20006KT 10SM SCT023 SCT033 BKN050 23/21 A2971 RMK AO1
KMQJ 221736Z AUTO 20007KT 10SM SCT025 SCT032 BKN050 24/21 A2971 RMK AO1
KMQJ 221717Z AUTO 18006KT 10SM SCT025 BKN032 OVC090 23/21 A2972 RMK AO1
KMQJ 221656Z AUTO 22005KT 10SM SCT027 SCT037 SCT055 24/21 A2972 RMK AO1
KMQJ 221636Z AUTO 21009KT 10SM SCT026 SCT055 BKN075 24/21 A2972 RMK AO1
KMQJ 221617Z AUTO 23008KT 10SM SCT021 SCT026 BKN055 24/21 A2972 RMK AO1
KMQJ 221556Z AUTO 23007KT 10SM SCT017 SCT024 SCT031 23/21 A2973 RMK AO1
KMQJ 221537Z AUTO 19004KT 10SM SCT017 SCT022 SCT029 22/21 A2973 RMK AO1
KMQJ 221516Z AUTO 17006KT 10SM SCT013 SCT021 SCT028 22/21 A2972 RMK AO1
KMQJ 221457Z AUTO 18005KT 10SM SCT011 BKN018 21/21 A2973 RMK AO1
KMQJ 221436Z AUTO 19006KT 10SM SCT011 OVC018 21/21 A2973 RMK AO1
KMQJ 221417Z AUTO 17006KT 10SM SCT009 OVC018 20/20 A2973 RMK AO1
KMQJ 221357Z AUTO 19006KT 10SM OVC009 20/20 A2973 RMK AO1
KMQJ 221336Z AUTO 20005KT 10SM BKN011 BKN049 20/20 A2973 RMK AO1
KMQJ 221317Z AUTO 18003KT 10SM SCT009 SCT018 BKN035 20/20 A2973 RMK AO1
KMQJ 221257Z AUTO 19003KT 10SM SCT006 BKN020 OVC035 19/19 A2973 RMK AO1
KMQJ 221236Z AUTO 16003KT 10SM BKN004 OVC035 19/19 A2973 RMK AO1
KMQJ 221217Z AUTO 18003KT 7SM OVC004 19/19 A2972 RMK AO1
KMQJ 221157Z AUTO 15003KT 7SM OVC004 18/18 A2972 RMK AO1
KMQJ 221136Z AUTO 00000KT 7SM OVC004 18/18 A2972 RMK AO1
KMQJ 221117Z AUTO 00000KT 7SM OVC004 18/18 A2973 RMK AO1
KMQJ 221057Z AUTO 22003KT 10SM OVC004 18/18 A2973 RMK AO1
KMQJ 221036Z AUTO 00000KT 5SM OVC004 18/18 A2972 RMK AO1
KMQJ 221017Z AUTO 00000KT 5SM BKN002 BKN100 18/18 A2972 RMK AO1
KMQJ 220956Z AUTO 10003KT 7SM SCT002 BKN100 OVC120 18/18 A2971 RMK AO1
KMQJ 220936Z AUTO 09003KT 5SM SCT002 SCT100 OVC120 18/18 A2971 RMK AO1
KMQJ 220917Z AUTO 08003KT 7SM SCT100 OVC120 18/18 A2970 RMK AO1
KMQJ 220856Z AUTO 07003KT 7SM BKN110 18/18 A2970 RMK AO1
KMQJ 220836Z AUTO 00000KT 7SM BKN110 18/18 A2969 RMK AO1
KMQJ 220817Z AUTO 00000KT 7SM OVC110 18/18 A2970 RMK AO1
KMQJ 220756Z AUTO 00000KT 7SM SCT002 BKN120 18/18 A2971 RMK AO1
KMQJ 220736Z AUTO 00000KT 4SM OVC002 19/19 A2971 RMK AO1
KMQJ 220717Z AUTO 00000KT 5SM OVC002 19/19 A2971 RMK AO1
KMQJ 220656Z AUTO 00000KT 7SM OVC002 18/18 A2971 RMK AO1
KMQJ 220636Z AUTO 00000KT 7SM OVC002 18/18 A2971 RMK AO1
KMQJ 220617Z AUTO 00000KT 10SM OVC002 18/18 A2971 RMK AO1
KMQJ 220556Z AUTO 13003KT 10SM BKN002 BKN090 OVC110 19/19 A2971 RMK AO1
KMQJ 220537Z AUTO 14006KT 10SM SCT002 SCT095 OVC110 19/19 A2971 RMK AO1
KMQJ 220516Z AUTO 19003KT 10SM SCT095 OVC120 19/19 A2972 RMK AO1
KMQJ 220456Z AUTO 24005KT 10SM SCT095 OVC110 19/19 A2972 RMK AO1
KMQJ 220437Z AUTO 18004KT 10SM SCT005 SCT065 OVC110 20/20 A2973 RMK AO1
KMQJ 220416Z AUTO 19007KT 120V220 10SM SCT038 OVC070 20/20 A2974 RMK AO1
KMQJ 220356Z AUTO 08012KT 7SM BKN039 BKN047 OVC080 20/20 A2974 RMK AO1
KMQJ 220337Z AUTO 08007KT 5SM SCT033 BKN043 OVC055 19/19 A2974 RMK AO1
KMQJ 220316Z AUTO 08007KT 7SM SCT005 BKN043 OVC055 20/20 A2976 RMK AO1
KMQJ 220256Z AUTO 01007KT 1/2SM BKN005 OVC008 19/19 A2976 RMK AO1
KMQJ 220237Z AUTO 24008KT 3SM SCT015 BKN020 OVC025 19/19 A2976 RMK AO1
KMQJ 220216Z AUTO 27013KT 4SM SCT005 BKN020 OVC038 19/19 A2975 RMK AO1
KMQJ 220157Z AUTO 00000KT 7SM SCT020 BKN038 OVC080 21/21 A2973 RMK AO1
KMQJ 220137Z AUTO 08004KT 10SM SCT044 BKN050 OVC090 21/21 A2972 RMK AO1
KMQJ 220116Z AUTO 09004KT 10SM SCT050 21/21 A2973 RMK AO1
KMQJ 220057Z AUTO 08003KT 10SM CLR 21/21 A2972 RMK AO1
KMQJ 220036Z AUTO 09005KT 10SM CLR 21/21 A2972 RMK AO1
KMQJ 220016Z AUTO 07007KT 10SM CLR 21/21 A2972 RMK AO1
KMQJ 212357Z AUTO 09005KT 10SM CLR 22/22 A2972 RMK AO1